Latest Coastal Weather Observations for Marion Reef

IDQ60701

Issued at 2:31 pm EST Sunday 29 March 2015 (issued every 10 minutes, with the page automatically refreshed every 10 minutes)

About coastal observations | Map of coastal stations | Coastal observations for QLD | Marine services | Other Formats
Station Details ID: 200704 Name: MARION REEF Lat: -19.10 Lon: 152.39 Height: 2.0 m
Data from the previous 72 hours. | See also: Recent months for locations in Queensland
Date/Time
EST
Temp

°C
Wind Pressure Rain
since 9am
mm
Weather Cloud Vis
km
Sea
Height
m
Swell
Dir
 
Speed
knots
Gust
knots
hPa Trend Height
m
Period
s
Dir
29/02:30pm 27.3 ESE 21 24 1014.4 - - - - - - - - -
29/02:00pm 27.4 ESE 20 23 1014.4 - - - - - - - - -
29/01:30pm 27.3 ESE 19 23 1014.9 - - - - - - - - -
29/01:00pm 27.5 ESE 19 22 1015.1 - - - - - - - - -
29/12:30pm 27.4 ESE 20 22 1015.6 - - - - - - - - -
29/12:00pm 27.5 SE 19 22 1015.9 - - - - - - - - -
29/11:30am 27.5 ESE 18 21 1016.5 - - - - - - - - -
29/11:00am 27.4 SE 19 21 1016.7 - - - - - - - - -
29/10:30am 27.4 ESE 19 22 1016.9 - - - - - - - - -
29/10:00am 27.5 ESE 20 24 1016.7 - - - - - - - - -
29/09:30am 27.4 ESE 21 25 1016.8 - - - - - - - - -
29/09:00am 27.5 SE 20 25 1016.7 - - - - - - - - -
29/08:30am 27.3 SE 20 23 1016.6 - - - - - - - - -
29/08:00am 27.4 SE 21 24 1016.5 - - - - - - - - -
29/07:30am 27.0 SE 21 24 1016.2 - - - - - - - - -
29/07:00am 27.2 ESE 22 26 1015.6 - - - - - - - - -
29/06:30am 27.1 SE 22 26 1015.2 - - - - - - - - -
29/06:00am 27.1 SE 22 26 1014.8 - - - - - - - - -
29/05:30am 27.2 SE 24 28 1014.4 - - - - - - - - -
29/05:00am 26.7 SE 23 28 1014.0 - - - - - - - - -
29/04:30am 26.9 SE 22 26 1013.9 - - - - - - - - -
29/04:00am 27.1 ESE 22 26 1013.7 - - - - - - - - -
29/03:30am 27.3 ESE 23 27 1013.6 - - - - - - - - -
29/03:00am 26.9 ESE 23 27 1013.5 - - - - - - - - -
29/02:30am 27.1 ESE 22 25 1013.7 - - - - - - - - -
29/02:00am 27.2 ESE 21 24 1013.9 - - - - - - - - -
29/01:30am 27.0 SE 22 25 1014.4 - - - - - - - - -
29/01:00am 27.6 SE 22 26 1014.4 - - - - - - - - -
29/12:30am 27.0 SE 23 27 1014.6 - - - - - - - - -
29/12:00am 27.0 SE 23 27 1015.0 - - - - - - - - -
 
Date/Time
EST
Temp

°C
Wind Pressure Rain
since 9am
mm
Weather Cloud Vis
km
Sea
Height
m
Swell
Dir
 
Speed
knots
Gust
knots
hPa Trend Height
m
Period
s
Dir
28/11:30pm 27.3 SE 22 26 1015.2 - - - - - - - - -
28/11:00pm 27.2 SE 23 25 1015.2 - - - - - - - - -
28/10:30pm 27.2 ESE 23 26 1015.4 - - - - - - - - -
28/10:00pm 27.2 SE 23 27 1015.3 - - - - - - - - -
28/09:30pm 27.4 SE 21 25 1015.6 - - - - - - - - -
28/09:00pm 27.5 SE 21 26 1015.5 - - - - - - - - -
28/08:30pm 27.5 SE 20 24 1015.5 - - - - - - - - -
28/08:00pm 27.5 SE 20 23 1015.2 - - - - - - - - -
28/07:30pm 27.2 SE 19 21 1015.1 - - - - - - - - -
28/07:00pm 27.2 SE 18 23 1014.7 - - - - - - - - -
28/06:30pm 27.2 SE 19 22 1014.2 - - - - - - - - -
28/06:00pm 27.1 SE 18 21 1013.8 - - - - - - - - -
28/05:30pm 27.1 SE 18 21 1013.7 - - - - - - - - -
28/05:00pm 27.4 SE 18 21 1013.5 - - - - - - - - -
28/04:30pm 27.2 SE 18 21 1013.4 - - - - - - - - -
28/04:00pm 27.6 SE 17 20 1013.2 - - - - - - - - -
28/03:30pm 27.3 SE 18 20 1013.0 - - - - - - - - -
28/03:00pm 27.3 SE 18 21 1013.0 - - - - - - - - -
28/02:30pm 27.0 ESE 17 21 1013.3 - - - - - - - - -
28/02:00pm 27.4 ESE 19 23 1013.3 - - - - - - - - -
28/01:30pm 27.3 ESE 19 23 1013.7 - - - - - - - - -
28/01:00pm 26.9 ESE 18 21 1013.7 - - - - - - - - -
28/12:30pm 27.4 ESE 18 22 1014.2 - - - - - - - - -
28/12:00pm 27.1 ESE 19 21 1014.6 - - - - - - - - -
28/11:30am 27.4 SE 19 21 1015.3 - - - - - - - - -
28/11:00am 27.3 SE 19 22 1015.6 - - - - - - - - -
28/10:30am 27.7 ESE 19 23 1015.9 - - - - - - - - -
28/10:00am 27.2 SE 20 23 1015.9 - - - - - - - - -
28/09:30am 27.3 SE 20 23 1016.0 - - - - - - - - -
28/09:00am 27.3 ESE 20 24 1015.9 - - - - - - - - -
28/08:30am 27.0 SE 21 24 1015.9 - - - - - - - - -
28/08:00am 27.2 SE 20 24 1015.5 - - - - - - - - -
28/07:30am 26.8 SE 17 20 1015.3 - - - - - - - - -
28/07:00am 26.9 SE 18 21 1015.0 - - - - - - - - -
28/06:30am 26.7 SE 19 23 1014.8 - - - - - - - - -
28/06:00am 26.2 SE 21 24 1014.4 - - - - - - - - -
28/05:30am 26.1 SE 22 25 1014.2 - - - - - - - - -
28/05:00am 25.8 SE 22 27 1013.7 - - - - - - - - -
28/04:30am 26.2 ESE 24 27 1013.3 - - - - - - - - -
28/04:00am 26.7 SE 21 24 1013.0 - - - - - - - - -
28/03:52am 27.0 SE 20 24 1013.1 - - - - - - - - -
28/03:30am 26.0 ENE 15 22 1013.3 - - - - - - - - -
28/03:00am 26.6 E 18 23 1013.3 - - - - - - - - -
28/02:45am 26.9 ESE 18 25 1013.5 - - - - - - - - -
28/02:00am 27.1 SE 21 24 1013.4 - - - - - - - - -
28/01:30am 26.9 SE 21 24 1013.5 - - - - - - - - -
28/01:00am 25.9 ESE 13 19 1013.8 - - - - - - - - -
28/12:30am 25.0 ESE 20 27 1014.6 - - - - - - - - -
28/12:00am 25.9 ESE 20 22 1014.6 - - - - - - - - -
 
Date/Time
EST
Temp

°C
Wind Pressure Rain
since 9am
mm
Weather Cloud Vis
km
Sea
Height
m
Swell
Dir
 
Speed
knots
Gust
knots
hPa Trend Height
m
Period
s
Dir
27/11:30pm 25.7 SE 17 22 1014.9 - - - - - - - - -
27/11:08pm 25.4 SE 21 31 1015.1 - - - - - - - - -
27/11:00pm 25.4 ESE 24 26 1015.1 - - - - - - - - -
27/10:47pm 25.5 ESE 23 26 1015.1 - - - - - - - - -
27/10:30pm 26.2 SSE 19 22 1015.3 - - - - - - - - -
27/10:00pm 27.1 SE 20 22 1015.3 - - - - - - - - -
27/09:30pm 26.9 SE 20 22 1015.3 - - - - - - - - -
27/09:00pm 27.2 SE 20 23 1015.3 - - - - - - - - -
27/08:30pm 27.4 SSE 19 22 1015.3 - - - - - - - - -
27/08:00pm 27.2 SSE 17 27 1015.0 - - - - - - - - -
27/07:30pm 27.5 SE 18 22 1014.8 - - - - - - - - -
27/07:00pm 27.3 SE 20 25 1014.3 - - - - - - - - -
27/06:30pm 27.4 SE 17 20 1014.2 - - - - - - - - -
27/06:00pm 27.3 SE 20 23 1013.8 - - - - - - - - -
27/05:30pm 27.4 SSE 18 21 1013.5 - - - - - - - - -
27/05:00pm 27.6 SE 17 20 1013.0 - - - - - - - - -
27/04:30pm 27.1 SE 17 21 1013.0 - - - - - - - - -
27/04:00pm 27.2 SE 16 18 1012.7 - - - - - - - - -
27/03:30pm 27.3 SE 14 18 1012.8 - - - - - - - - -
27/03:00pm 27.2 SE 14 17 1012.7 - - - - - - - - -
27/02:30pm 27.2 SE 16 18 1012.9 - - - - - - - - -
27/02:00pm 27.0 SE 16 18 1013.0 - - - - - - - - -
27/01:30pm 27.4 SE 15 19 1013.6 - - - - - - - - -
27/01:00pm 27.2 SE 15 18 1013.7 - - - - - - - - -
27/12:30pm 27.3 SE 14 16 1014.2 - - - - - - - - -
27/12:00pm 27.2 ESE 14 17 1014.7 - - - - - - - - -
27/11:30am 27.2 SE 15 17 1015.5 - - - - - - - - -
27/11:00am 27.2 SE 15 18 1015.8 - - - - - - - - -
27/10:30am 27.2 ESE 15 18 1016.3 - - - - - - - - -
27/10:00am 27.3 ESE 16 19 1016.5 - - - - - - - - -
27/09:30am 27.1 ESE 15 16 1016.5 - - - - - - - - -
27/09:00am 27.4 ESE 16 18 1016.4 - - - - - - - - -
27/08:30am 27.1 ESE 14 17 1016.6 - - - - - - - - -
27/08:00am 27.4 ESE 16 21 1016.5 - - - - - - - - -
27/07:30am 27.3 ESE 17 20 1016.3 - - - - - - - - -
27/07:00am 27.2 ESE 17 21 1016.0 - - - - - - - - -
27/06:30am 27.2 ESE 17 21 1015.9 - - - - - - - - -
27/06:00am 27.0 ESE 18 21 1015.5 - - - - - - - - -
27/05:30am 26.8 ESE 19 21 1015.3 - - - - - - - - -
27/05:00am 26.5 ESE 18 20 1015.1 - - - - - - - - -
27/04:30am 26.8 ESE 17 20 1015.0 - - - - - - - - -
27/04:00am 26.8 SE 18 21 1014.7 - - - - - - - - -
27/03:30am 26.8 ESE 17 20 1014.6 - - - - - - - - -
27/03:00am 27.0 ESE 18 20 1014.5 - - - - - - - - -
27/02:30am 27.1 SE 16 19 1014.7 - - - - - - - - -
27/02:00am 27.2 ESE 16 18 1014.7 - - - - - - - - -
27/01:30am 27.3 ESE 17 19 1015.0 - - - - - - - - -
27/01:00am 27.2 ESE 16 19 1015.2 - - - - - - - - -
27/12:30am 27.5 SE 17 20 1015.7 - - - - - - - - -
27/12:00am 27.5 SE 18 20 1015.8 - - - - - - - - -
 
Date/Time
EST
Temp

°C
Wind Pressure Rain
since 9am
mm
Weather Cloud Vis
km
Sea
Height
m
Swell
Dir
 
Speed
knots
Gust
knots
hPa Trend Height
m
Period
s
Dir
26/11:30pm 27.2 ESE 18 21 1016.0 - - - - - - - - -
26/11:00pm 27.7 ESE 17 21 1016.0 - - - - - - - - -
26/10:30pm 27.5 ESE 14 17 1016.3 - - - - - - - - -
26/10:00pm 27.5 ESE 15 17 1016.3 - - - - - - - - -
26/09:30pm 27.8 ESE 15 17 1016.4 - - - - - - - - -
26/09:00pm 27.7 ESE 16 18 1016.2 - - - - - - - - -
26/08:30pm 27.7 ESE 17 20 1015.9 - - - - - - - - -
26/08:00pm 27.8 ESE 17 20 1015.4 - - - - - - - - -
26/07:30pm 27.7 ESE 17 19 1015.4 - - - - - - - - -
26/07:00pm 27.9 ESE 17 19 1014.9 - - - - - - - - -
26/06:30pm 27.7 ESE 18 20 1014.5 - - - - - - - - -
26/06:00pm 27.8 ESE 18 21 1014.2 - - - - - - - - -
26/05:30pm 27.9 ESE 16 18 1013.9 - - - - - - - - -
26/05:00pm 27.6 ESE 15 16 1013.5 - - - - - - - - -
26/04:30pm 27.8 ESE 15 18 1013.3 - - - - - - - - -
26/04:00pm 27.7 ESE 13 15 1013.0 - - - - - - - - -
26/03:30pm 27.7 SE 12 14 1013.0 - - - - - - - - -
26/03:00pm 27.7 ESE 12 15 1013.1 - - - - - - - - -

Other Formats:

Comma delimited format used in spreadsheet applications
http://www.bom.gov.au/fwo/IDQ60701/IDQ60701.94298.axf

JavaScript Object Notation format (JSON) in row-major order
http://www.bom.gov.au/fwo/IDQ60701/IDQ60701.94298.json